Eiwamaru — JG5742 — position and weather

sailwx.info

Track history (hours):
 
Tides and Currents Weather Stations Pressure Air Temp Water Temp Dewpoint Dewpoint Depression Visibility Wind Speed Wind Dir Waves Ship Positions

Eiwamaru

Last reported at 2014-Dec-18 23:33 UTC. Time now 2014-Dec-20 23:00 UTC.
Position N 35°17' E 139°44'.

Length 80 m; draft 5.3 m.

Type: Tanker. MMSI: 431101045.

Date/timePositionNaut miles runAvg speedWind from/ knotsBaromVisibWave heightAir tempDewpointWater temp
2014-Dec-18 23:33N 35°17' E 139°44'1110.7
2014-Dec-18 22:33N 35°28' E 139°49'9 9.0
2014-Dec-18 21:33N 35°35' E 139°54'0 0.0
2014-Dec-18 20:12N 35°35' E 139°54'0 0.0
2014-Dec-18 19:30N 35°35' E 139°54'0 0.0
2014-Dec-18 18:18N 35°35' E 139°54'0 0.0
2014-Dec-18 17:30N 35°35' E 139°54'0 0.0
2014-Dec-18 16:33N 35°35' E 139°54'0 0.0
2014-Dec-18 15:27N 35°35' E 139°54'0 0.0
2014-Dec-18 14:27N 35°35' E 139°54'0 0.0
2014-Dec-18 13:12N 35°35' E 139°54'0 0.0
2014-Dec-17 22:34N 35°35' E 139°55'0 0.0
2014-Dec-17 21:33N 35°35' E 139°55'0 0.0
2014-Dec-17 20:30N 35°35' E 139°55'0 0.0
2014-Dec-17 19:32N 35°35' E 139°55'0 0.0
2014-Dec-17 18:21N 35°35' E 139°55'0 0.0
2014-Dec-17 17:33N 35°36' E 139°55'0 0.1
2014-Dec-17 16:30N 35°36' E 139°55'0 0.0
2014-Dec-17 15:30N 35°36' E 139°55'0 0.0
2014-Dec-17 14:24N 35°36' E 139°55'0 0.0
2014-Dec-17 10:12N 35°36' E 139°55'0 0.0
2014-Dec-17 09:32N 35°36' E 139°55'0 0.0
2014-Dec-17 07:19N 35°36' E 139°55'0 0.1
2014-Dec-17 06:23N 35°36' E 139°55'0 0.0
2014-Dec-17 01:05N 35°36' E 139°55'0 0.0
2014-Dec-17 00:24N 35°36' E 139°55'0 0.0
2014-Dec-16 22:33N 35°36' E 139°55'0 0.0
2014-Dec-16 21:29N 35°36' E 139°55'0 0.0
2014-Dec-16 20:33N 35°36' E 139°55'0 0.0
2014-Dec-16 19:31N 35°36' E 139°55'0 0.0
2014-Dec-16 18:32N 35°36' E 139°55'0 0.0
2014-Dec-16 17:33N 35°36' E 139°55'0 0.0
2014-Dec-16 16:28N 35°36' E 139°55'0 0.0
2014-Dec-16 15:25N 35°36' E 139°55'0 0.1
2014-Dec-16 14:30N 35°35' E 139°55'0 0.0
2014-Dec-16 12:16N 35°35' E 139°55'0 0.0
2014-Dec-16 09:29N 35°35' E 139°55'0 0.0
2014-Dec-16 08:33N 35°35' E 139°55'0 0.0
2014-Dec-16 04:32N 35°35' E 139°55'0 0.0
2014-Dec-16 03:30N 35°35' E 139°55'0 0.0
2014-Dec-16 01:05N 35°35' E 139°55'0 0.0
2014-Dec-16 00:31N 35°35' E 139°55'0 0.0
2014-Dec-15 23:32N 35°35' E 139°55'0 0.0
2014-Dec-15 22:33N 35°35' E 139°55'0 0.0
2014-Dec-15 21:33N 35°35' E 139°55'0 0.0
2014-Dec-15 20:33N 35°35' E 139°55'0 0.0
2014-Dec-15 19:34N 35°35' E 139°55'0 0.0
2014-Dec-15 18:33N 35°35' E 139°55'0 0.0
2014-Dec-15 17:33N 35°35' E 139°55'0 0.0
2014-Dec-15 16:27N 35°35' E 139°55'0 0.0
2014-Dec-15 15:26N 35°35' E 139°55'0 0.0
2014-Dec-15 14:27N 35°35' E 139°55'0 0.0
2014-Dec-15 13:32N 35°35' E 139°55'0 0.0
2014-Dec-15 12:25N 35°35' E 139°55'0 0.0
2014-Dec-15 10:23N 35°35' E 139°55'0 0.0
2014-Dec-15 09:04N 35°35' E 139°55'4 8.6
2014-Dec-15 08:32N 35°31' E 139°53'5 4.5
2014-Dec-15 07:24N 35°30' E 139°46'0 0.0
2014-Dec-15 06:33N 35°30' E 139°46'0 0.0
2014-Dec-15 05:30N 35°30' E 139°46'0 0.0
2014-Dec-15 04:32N 35°30' E 139°46'0 0.0
2014-Dec-15 03:33N 35°30' E 139°46'0 0.0
2014-Dec-15 02:30N 35°30' E 139°46'0 0.0
2014-Dec-15 01:30N 35°30' E 139°46'0 0.0
2014-Dec-15 00:30N 35°30' E 139°46'0 0.0
2014-Dec-14 23:32N 35°30' E 139°46'2 1.9
2014-Dec-14 22:34N 35°29' E 139°48'0 0.0
2014-Dec-14 21:33N 35°29' E 139°48'0 0.0
2014-Dec-14 20:32N 35°29' E 139°48'0 0.0
2014-Dec-14 19:33N 35°29' E 139°48'0 0.0
2014-Dec-14 18:33N 35°29' E 139°48'0 0.0
2014-Dec-14 17:33N 35°29' E 139°48'0 0.0
2014-Dec-14 16:30N 35°29' E 139°48'0 0.0
2014-Dec-14 15:33N 35°29' E 139°48'0 0.0
2014-Dec-14 14:33N 35°29' E 139°48'0 0.0
2014-Dec-14 13:34N 35°29' E 139°48'6 5.7
2014-Dec-14 12:34N 35°24' E 139°46'1211.7
2014-Dec-14 11:31N 35°11' E 139°47'6 0.2
2014-Dec-13 04:31N 35°17' E 139°45'1111.0
2014-Dec-13 03:33N 35°28' E 139°46'3 3.1
2014-Dec-13 02:33N 35°31' E 139°46'0 0.0
2014-Dec-13 01:33N 35°31' E 139°46'0 0.0
2014-Dec-13 00:33N 35°31' E 139°46'0 0.3
2014-Dec-12 23:33N 35°30' E 139°47'2 2.0
2014-Dec-12 22:33N 35°29' E 139°48'0 0.0
2014-Dec-12 21:33N 35°29' E 139°48'0 0.1
2014-Dec-12 20:33N 35°29' E 139°48'0 0.0
2014-Dec-12 19:33N 35°29' E 139°48'0 0.0
2014-Dec-12 18:33N 35°29' E 139°48'0 0.0
2014-Dec-12 17:33N 35°29' E 139°48'9 9.1
2014-Dec-12 16:33N 35°20' E 139°44'1312.4
2014-Dec-12 15:32N 35°07' E 139°47'241 4.9
2014-Dec-10 14:33N 34°06' E 135°03'4 0.7
2014-Dec-10 09:23N 34°07' E 135°08'7 8.2
2014-Dec-10 08:34N 34°12' E 135°02'1211.4
2014-Dec-10 07:33N 34°23' E 135°03'1514.0
2014-Dec-10 06:27N 34°31' E 135°19'6 6.5
2014-Dec-10 05:33N 34°33' E 135°26'0 0.0
2014-Dec-10 04:33N 34°33' E 135°26'0 0.0
2014-Dec-10 03:33N 34°33' E 135°26'0 0.0
2014-Dec-10 02:33N 34°33' E 135°26'0 0.0
2014-Dec-10 01:33N 34°33' E 135°26'0 0.0
2014-Dec-10 00:33N 34°33' E 135°26'0 0.0
2014-Dec-09 23:33N 34°33' E 135°26'0 0.0
2014-Dec-09 22:33N 34°33' E 135°26'4 3.9
2014-Dec-09 21:33N 34°33' E 135°21'1211.9
2014-Dec-09 20:33N 34°25' E 135°10'1311.4
2014-Dec-09 19:27N 34°16' E 134°60'1111.8
2014-Dec-09 18:33N 34°05' E 135°00'  
Track history (hours):
 
Tides and Currents Weather Stations Pressure Air Temp Water Temp Dewpoint Dewpoint Depression Visibility Wind Speed Wind Dir Waves Ship Positions

Eiwamaru

Last reported at 2014-Dec-18 23:33 UTC. Time now 2014-Dec-20 23:00 UTC.
Position N 35°17' E 139°44'.

Length 80 m; draft 5.3 m.

Type: Tanker. MMSI: 431101045.

Date/timePositionNaut miles runAvg speedWind from/ knotsBaromVisibWave heightAir tempDewpointWater temp
2014-Dec-18 23:33N 35°17' E 139°44'1110.7
2014-Dec-18 22:33N 35°28' E 139°49'9 9.0
2014-Dec-18 21:33N 35°35' E 139°54'0 0.0
2014-Dec-18 20:12N 35°35' E 139°54'0 0.0
2014-Dec-18 19:30N 35°35' E 139°54'0 0.0
2014-Dec-18 18:18N 35°35' E 139°54'0 0.0
2014-Dec-18 17:30N 35°35' E 139°54'0 0.0
2014-Dec-18 16:33N 35°35' E 139°54'0 0.0
2014-Dec-18 15:27N 35°35' E 139°54'0 0.0
2014-Dec-18 14:27N 35°35' E 139°54'0 0.0
2014-Dec-18 13:12N 35°35' E 139°54'0 0.0
2014-Dec-17 22:34N 35°35' E 139°55'0 0.0
2014-Dec-17 21:33N 35°35' E 139°55'0 0.0
2014-Dec-17 20:30N 35°35' E 139°55'0 0.0
2014-Dec-17 19:32N 35°35' E 139°55'0 0.0
2014-Dec-17 18:21N 35°35' E 139°55'0 0.0
2014-Dec-17 17:33N 35°36' E 139°55'0 0.1
2014-Dec-17 16:30N 35°36' E 139°55'0 0.0
2014-Dec-17 15:30N 35°36' E 139°55'0 0.0
2014-Dec-17 14:24N 35°36' E 139°55'0 0.0
2014-Dec-17 10:12N 35°36' E 139°55'0 0.0
2014-Dec-17 09:32N 35°36' E 139°55'0 0.0
2014-Dec-17 07:19N 35°36' E 139°55'0 0.1
2014-Dec-17 06:23N 35°36' E 139°55'0 0.0
2014-Dec-17 01:05N 35°36' E 139°55'0 0.0
2014-Dec-17 00:24N 35°36' E 139°55'0 0.0
2014-Dec-16 22:33N 35°36' E 139°55'0 0.0
2014-Dec-16 21:29N 35°36' E 139°55'0 0.0
2014-Dec-16 20:33N 35°36' E 139°55'0 0.0
2014-Dec-16 19:31N 35°36' E 139°55'0 0.0
2014-Dec-16 18:32N 35°36' E 139°55'0 0.0
2014-Dec-16 17:33N 35°36' E 139°55'0 0.0
2014-Dec-16 16:28N 35°36' E 139°55'0 0.0
2014-Dec-16 15:25N 35°36' E 139°55'0 0.1
2014-Dec-16 14:30N 35°35' E 139°55'0 0.0
2014-Dec-16 12:16N 35°35' E 139°55'0 0.0
2014-Dec-16 09:29N 35°35' E 139°55'0 0.0
2014-Dec-16 08:33N 35°35' E 139°55'0 0.0
2014-Dec-16 04:32N 35°35' E 139°55'0 0.0
2014-Dec-16 03:30N 35°35' E 139°55'0 0.0
2014-Dec-16 01:05N 35°35' E 139°55'0 0.0
2014-Dec-16 00:31N 35°35' E 139°55'0 0.0
2014-Dec-15 23:32N 35°35' E 139°55'0 0.0
2014-Dec-15 22:33N 35°35' E 139°55'0 0.0
2014-Dec-15 21:33N 35°35' E 139°55'0 0.0
2014-Dec-15 20:33N 35°35' E 139°55'0 0.0
2014-Dec-15 19:34N 35°35' E 139°55'0 0.0
2014-Dec-15 18:33N 35°35' E 139°55'0 0.0
2014-Dec-15 17:33N 35°35' E 139°55'0 0.0
2014-Dec-15 16:27N 35°35' E 139°55'0 0.0
2014-Dec-15 15:26N 35°35' E 139°55'0 0.0
2014-Dec-15 14:27N 35°35' E 139°55'0 0.0
2014-Dec-15 13:32N 35°35' E 139°55'0 0.0
2014-Dec-15 12:25N 35°35' E 139°55'0 0.0
2014-Dec-15 10:23N 35°35' E 139°55'0 0.0
2014-Dec-15 09:04N 35°35' E 139°55'4 8.6
2014-Dec-15 08:32N 35°31' E 139°53'5 4.5
2014-Dec-15 07:24N 35°30' E 139°46'0 0.0
2014-Dec-15 06:33N 35°30' E 139°46'0 0.0
2014-Dec-15 05:30N 35°30' E 139°46'0 0.0
2014-Dec-15 04:32N 35°30' E 139°46'0 0.0
2014-Dec-15 03:33N 35°30' E 139°46'0 0.0
2014-Dec-15 02:30N 35°30' E 139°46'0 0.0
2014-Dec-15 01:30N 35°30' E 139°46'0 0.0
2014-Dec-15 00:30N 35°30' E 139°46'0 0.0
2014-Dec-14 23:32N 35°30' E 139°46'2 1.9
2014-Dec-14 22:34N 35°29' E 139°48'0 0.0
2014-Dec-14 21:33N 35°29' E 139°48'0 0.0
2014-Dec-14 20:32N 35°29' E 139°48'0 0.0
2014-Dec-14 19:33N 35°29' E 139°48'0 0.0
2014-Dec-14 18:33N 35°29' E 139°48'0 0.0
2014-Dec-14 17:33N 35°29' E 139°48'0 0.0
2014-Dec-14 16:30N 35°29' E 139°48'0 0.0
2014-Dec-14 15:33N 35°29' E 139°48'0 0.0
2014-Dec-14 14:33N 35°29' E 139°48'0 0.0
2014-Dec-14 13:34N 35°29' E 139°48'6 5.7
2014-Dec-14 12:34N 35°24' E 139°46'1211.7
2014-Dec-14 11:31N 35°11' E 139°47'6 0.2
2014-Dec-13 04:31N 35°17' E 139°45'1111.0
2014-Dec-13 03:33N 35°28' E 139°46'3 3.1
2014-Dec-13 02:33N 35°31' E 139°46'0 0.0
2014-Dec-13 01:33N 35°31' E 139°46'0 0.0
2014-Dec-13 00:33N 35°31' E 139°46'0 0.3
2014-Dec-12 23:33N 35°30' E 139°47'2 2.0
2014-Dec-12 22:33N 35°29' E 139°48'0 0.0
2014-Dec-12 21:33N 35°29' E 139°48'0 0.1
2014-Dec-12 20:33N 35°29' E 139°48'0 0.0
2014-Dec-12 19:33N 35°29' E 139°48'0 0.0
2014-Dec-12 18:33N 35°29' E 139°48'0 0.0
2014-Dec-12 17:33N 35°29' E 139°48'9 9.1
2014-Dec-12 16:33N 35°20' E 139°44'1312.4
2014-Dec-12 15:32N 35°07' E 139°47'241 4.9
2014-Dec-10 14:33N 34°06' E 135°03'4 0.7
2014-Dec-10 09:23N 34°07' E 135°08'7 8.2
2014-Dec-10 08:34N 34°12' E 135°02'1211.4
2014-Dec-10 07:33N 34°23' E 135°03'1514.0
2014-Dec-10 06:27N 34°31' E 135°19'6 6.5
2014-Dec-10 05:33N 34°33' E 135°26'0 0.0
2014-Dec-10 04:33N 34°33' E 135°26'0 0.0
2014-Dec-10 03:33N 34°33' E 135°26'0 0.0
2014-Dec-10 02:33N 34°33' E 135°26'0 0.0
2014-Dec-10 01:33N 34°33' E 135°26'0 0.0
2014-Dec-10 00:33N 34°33' E 135°26'0 0.0
2014-Dec-09 23:33N 34°33' E 135°26'0 0.0
2014-Dec-09 22:33N 34°33' E 135°26'4 3.9
2014-Dec-09 21:33N 34°33' E 135°21'1211.9
2014-Dec-09 20:33N 34°25' E 135°10'1311.4
2014-Dec-09 19:27N 34°16' E 134°60'1111.8
2014-Dec-09 18:33N 34°05' E 135°00'  

Dump ship's entire track history